createdAt,value
2018-08-03T00:00:52.106Z,12.50
2018-08-03T00:03:22.262Z,13.70
2018-08-03T00:05:52.460Z,12.87
2018-08-03T00:08:22.718Z,12.53
2018-08-03T00:10:52.834Z,14.37
2018-08-03T00:13:29.190Z,13.23
2018-08-03T00:15:59.373Z,13.10
2018-08-03T00:18:30.048Z,12.73
2018-08-03T00:21:00.261Z,14.90
2018-08-03T00:23:30.386Z,14.83
2018-08-03T00:26:00.611Z,16.10
2018-08-03T00:28:30.677Z,15.20
2018-08-03T00:31:00.781Z,12.37
2018-08-03T00:33:31.026Z,12.40
2018-08-03T00:36:01.139Z,13.57
2018-08-03T00:38:31.308Z,14.13
2018-08-03T00:41:01.583Z,14.07
2018-08-03T00:43:32.193Z,15.37
2018-08-03T00:46:02.367Z,13.57
2018-08-03T00:48:32.713Z,12.90
2018-08-03T00:51:02.894Z,13.47
2018-08-03T00:53:33.081Z,13.80
2018-08-03T00:56:03.454Z,13.23
2018-08-03T00:58:33.959Z,19.93
2018-08-03T01:01:04.774Z,13.70
2018-08-03T01:03:34.875Z,13.53
2018-08-03T01:06:05.174Z,14.13
2018-08-03T01:08:35.594Z,13.33
2018-08-03T01:11:05.711Z,13.63
2018-08-03T01:13:36.702Z,20.83
2018-08-03T01:16:06.923Z,13.93
2018-08-03T01:18:36.984Z,14.40
2018-08-03T01:21:07.210Z,16.93
2018-08-03T01:23:37.441Z,14.03
2018-08-03T01:26:08.892Z,14.83
2018-08-03T01:28:40.548Z,13.33
2018-08-03T01:31:11.026Z,12.60
2018-08-03T01:33:41.137Z,12.97
2018-08-03T01:36:11.216Z,13.10
2018-08-03T01:38:43.727Z,13.23
2018-08-03T01:41:14.581Z,15.20
2018-08-03T01:43:45.362Z,13.23
2018-08-03T01:46:19.067Z,13.57
2018-08-03T01:48:49.378Z,13.50
2018-08-03T01:51:19.737Z,16.67
2018-08-03T01:53:49.681Z,14.50
2018-08-03T01:56:19.729Z,14.27
2018-08-03T01:58:49.832Z,16.13
2018-08-03T02:01:20.327Z,15.97
2018-08-03T02:03:50.955Z,13.40
2018-08-03T02:06:20.993Z,12.33
2018-08-03T02:08:50.980Z,12.00
2018-08-03T02:11:21.113Z,13.43
2018-08-03T02:13:51.265Z,14.07
2018-08-03T02:16:21.314Z,14.80
2018-08-03T02:18:51.540Z,15.03
2018-08-03T02:21:21.592Z,15.33
2018-08-03T02:23:51.801Z,12.33
2018-08-03T02:26:21.928Z,13.30
2018-08-03T02:28:52.724Z,11.47
2018-08-03T02:31:22.740Z,12.23
2018-08-03T02:33:52.922Z,11.27
2018-08-03T02:36:23.092Z,12.10
2018-08-03T02:38:53.527Z,13.47
2018-08-03T02:41:23.714Z,10.60
2018-08-03T02:43:54.288Z,11.33
2018-08-03T02:46:25.556Z,11.50
2018-08-03T02:48:55.763Z,13.77
2018-08-03T02:51:25.907Z,16.80
2018-08-03T02:53:56.027Z,11.30
2018-08-03T02:56:26.142Z,14.20
2018-08-03T02:58:56.234Z,11.47
2018-08-03T03:01:26.467Z,11.87
2018-08-03T03:03:56.684Z,11.63
2018-08-03T03:06:26.764Z,12.33
2018-08-03T03:08:56.843Z,12.70
2018-08-03T03:11:26.956Z,11.50
2018-08-03T03:13:57.784Z,10.20
2018-08-03T03:16:27.866Z,11.00
2018-08-03T03:18:57.977Z,11.73
2018-08-03T03:21:27.920Z,10.30
2018-08-03T03:23:58.195Z,10.93
2018-08-03T03:26:28.591Z,12.53
2018-08-03T03:28:59.095Z,11.63
2018-08-03T03:31:29.462Z,12.47
2018-08-03T03:33:59.636Z,12.67
2018-08-03T03:36:30.095Z,11.30
2018-08-03T03:39:00.234Z,14.67
2018-08-03T03:41:30.365Z,11.03
2018-08-03T03:44:00.578Z,15.20
2018-08-03T03:46:31.517Z,12.33
2018-08-03T03:49:01.648Z,12.43
2018-08-03T03:51:31.886Z,13.20
2018-08-03T03:54:02.426Z,15.33
2018-08-03T03:56:32.586Z,12.37
2018-08-03T03:59:02.832Z,13.87
2018-08-03T04:01:33.094Z,13.27
2018-08-03T04:04:03.350Z,12.57
2018-08-03T04:06:33.572Z,12.77
2018-08-03T04:09:04.198Z,14.10
2018-08-03T04:11:34.466Z,14.70
2018-08-03T04:14:04.995Z,16.03
2018-08-03T04:16:35.837Z,14.90
2018-08-03T04:19:06.527Z,15.53
2018-08-03T04:21:36.967Z,13.47
2018-08-03T04:24:07.264Z,14.20
2018-08-03T04:26:37.506Z,15.00
2018-08-03T04:29:08.204Z,13.50
2018-08-03T04:31:38.374Z,14.47
2018-08-03T04:34:09.261Z,12.60
2018-08-03T04:36:39.412Z,17.73
2018-08-03T04:39:09.803Z,18.20
2018-08-03T04:41:40.005Z,12.90
2018-08-03T04:44:10.298Z,12.47
2018-08-03T04:46:40.570Z,16.23
2018-08-03T04:49:11.324Z,11.70
2018-08-03T04:51:41.561Z,15.60
2018-08-03T04:54:11.722Z,13.63
2018-08-03T04:56:41.719Z,12.90
2018-08-03T04:59:12.942Z,16.30
2018-08-03T05:01:50.280Z,17.37
2018-08-03T05:04:20.497Z,16.43
2018-08-03T05:06:50.498Z,13.90
2018-08-03T05:09:20.671Z,13.07
2018-08-03T05:11:51.439Z,15.77
2018-08-03T05:14:21.834Z,14.73
2018-08-03T05:16:52.092Z,16.60
2018-08-03T05:19:22.455Z,14.80
2018-08-03T05:21:52.748Z,14.00
2018-08-03T05:24:22.809Z,13.33
2018-08-03T05:26:53.239Z,17.17
2018-08-03T05:29:23.504Z,12.53
2018-08-03T05:31:53.655Z,19.03
2018-08-03T05:34:23.853Z,18.13
2018-08-03T05:36:54.482Z,12.90
2018-08-03T05:39:24.867Z,17.40
2018-08-03T05:41:55.041Z,15.10
2018-08-03T05:44:25.484Z,12.33
2018-08-03T05:46:55.709Z,13.07
2018-08-03T05:49:26.804Z,13.67
2018-08-03T05:51:57.049Z,14.10
2018-08-03T05:54:27.334Z,14.37
2018-08-03T05:56:57.406Z,13.43
2018-08-03T05:59:27.495Z,15.43
2018-08-03T06:01:57.475Z,14.10
2018-08-03T06:04:27.776Z,15.40
2018-08-03T06:06:57.991Z,13.13
2018-08-03T06:09:28.376Z,13.27
2018-08-03T06:11:58.778Z,13.20
2018-08-03T06:14:29.151Z,15.20
2018-08-03T06:17:00.368Z,12.47
2018-08-03T06:19:30.695Z,13.80
2018-08-03T06:22:00.840Z,14.00
2018-08-03T06:24:31.794Z,17.13
2018-08-03T06:27:02.165Z,13.60
2018-08-03T06:29:32.873Z,13.37
2018-08-03T06:32:02.974Z,17.70
2018-08-03T06:34:33.048Z,14.57
2018-08-03T06:37:03.224Z,15.33
2018-08-03T06:39:33.469Z,12.80
2018-08-03T06:42:03.564Z,21.43
2018-08-03T06:44:34.152Z,13.00
2018-08-03T06:47:04.826Z,14.10
2018-08-03T06:49:35.277Z,12.20
2018-08-03T06:52:05.676Z,12.23
2018-08-03T06:54:35.997Z,13.93
2018-08-03T06:57:06.007Z,13.00
2018-08-03T06:59:36.876Z,13.37
2018-08-03T07:02:07.277Z,13.27
2018-08-03T07:04:37.332Z,15.00
2018-08-03T07:07:13.691Z,12.80
2018-08-03T07:09:44.348Z,13.93
2018-08-03T07:12:15.015Z,13.33
2018-08-03T07:14:45.207Z,14.73
2018-08-03T07:17:15.507Z,14.07
2018-08-03T07:19:46.398Z,13.33
2018-08-03T07:22:16.959Z,13.97
2018-08-03T07:24:47.052Z,13.37
2018-08-03T07:27:17.286Z,12.73
2018-08-03T07:29:47.437Z,11.40
2018-08-03T07:32:18.580Z,13.10
2018-08-03T07:34:48.827Z,13.27
2018-08-03T07:37:18.890Z,12.30
2018-08-03T07:39:49.702Z,16.30
2018-08-03T07:42:19.907Z,12.47
2018-08-03T07:44:50.398Z,13.80
2018-08-03T07:47:20.945Z,12.60
2018-08-03T07:49:51.542Z,13.13
2018-08-03T07:52:21.933Z,14.60
2018-08-03T07:54:53.130Z,15.23
2018-08-03T07:57:23.317Z,14.10
2018-08-03T07:59:53.530Z,13.33
2018-08-03T08:02:23.675Z,14.50
2018-08-03T08:04:53.878Z,12.80
2018-08-03T08:07:24.022Z,13.50
2018-08-03T08:09:54.594Z,12.77
2018-08-03T08:12:24.780Z,16.20
2018-08-03T08:14:55.463Z,11.60
2018-08-03T08:17:25.669Z,12.23
2018-08-03T08:19:55.920Z,12.60
2018-08-03T08:22:26.055Z,15.50
2018-08-03T08:24:56.484Z,11.67
2018-08-03T08:27:29.737Z,12.80
2018-08-03T08:29:59.985Z,11.83
2018-08-03T08:32:30.110Z,13.23
2018-08-03T08:35:00.300Z,16.23
2018-08-03T08:37:30.539Z,12.13
2018-08-03T08:40:00.720Z,13.43
2018-08-03T08:42:31.237Z,11.83
2018-08-03T08:45:01.477Z,14.10
2018-08-03T08:47:31.554Z,12.83
2018-08-03T08:50:01.804Z,10.60
2018-08-03T08:52:32.260Z,12.53
2018-08-03T08:55:02.354Z,12.20
2018-08-03T08:57:32.868Z,16.80
2018-08-03T09:00:03.083Z,15.93
2018-08-03T09:02:33.753Z,12.20
2018-08-03T09:05:04.055Z,12.30
2018-08-03T09:07:34.492Z,12.77
2018-08-03T09:10:04.596Z,15.00
2018-08-03T09:12:34.813Z,13.10
2018-08-03T09:15:05.185Z,12.30
2018-08-03T09:17:35.271Z,16.47
2018-08-03T09:20:06.507Z,13.97
2018-08-03T09:22:37.092Z,12.50
2018-08-03T09:25:07.878Z,12.30
2018-08-03T09:27:38.098Z,12.60
2018-08-03T09:30:09.739Z,11.83
2018-08-03T09:32:39.882Z,13.00
2018-08-03T09:35:10.095Z,11.80
2018-08-03T09:37:40.647Z,12.60
2018-08-03T09:40:11.031Z,12.17
2018-08-03T09:42:40.973Z,13.50
2018-08-03T09:45:11.303Z,12.37
2018-08-03T09:47:42.290Z,13.80
2018-08-03T09:50:12.790Z,12.43
2018-08-03T09:52:43.223Z,10.10
2018-08-03T09:55:13.467Z,13.57
2018-08-03T09:57:43.864Z,11.17
2018-08-03T10:00:16.495Z,10.57
2018-08-03T10:02:46.902Z,13.70
2018-08-03T10:05:16.992Z,9.33
2018-08-03T10:07:47.079Z,9.13
2018-08-03T10:10:17.278Z,9.17
2018-08-03T10:12:48.135Z,10.00
2018-08-03T10:15:18.417Z,9.90
2018-08-03T10:17:48.687Z,14.10
2018-08-03T10:20:18.957Z,9.13
2018-08-03T10:22:49.217Z,9.60
2018-08-03T10:25:19.426Z,10.73
2018-08-03T10:27:49.542Z,9.47
2018-08-03T10:30:20.010Z,9.30
2018-08-03T10:32:50.310Z,9.30
2018-08-03T10:35:20.456Z,11.40
2018-08-03T10:37:50.597Z,10.43
2018-08-03T10:40:20.730Z,11.20
2018-08-03T10:42:50.993Z,8.73
2018-08-03T10:45:21.433Z,8.10
2018-08-03T10:47:51.565Z,9.00
2018-08-03T10:50:22.441Z,10.50
2018-08-03T10:52:53.394Z,9.87
2018-08-03T10:55:30.014Z,9.80
2018-08-03T10:58:00.287Z,11.20
2018-08-03T11:00:31.916Z,8.27
2018-08-03T11:03:02.326Z,8.87
2018-08-03T11:05:32.631Z,8.80
2018-08-03T11:08:03.691Z,10.37
2018-08-03T11:10:33.994Z,10.30
2018-08-03T11:13:04.536Z,8.10
2018-08-03T11:15:34.687Z,8.67
2018-08-03T11:18:05.318Z,8.43
2018-08-03T11:20:35.448Z,8.60
2018-08-03T11:23:05.524Z,7.80
2018-08-03T11:25:35.711Z,9.70
2018-08-03T11:28:06.028Z,7.60
2018-08-03T11:30:36.556Z,8.60
2018-08-03T11:33:06.740Z,8.47
2018-08-03T11:35:36.965Z,8.10
2018-08-03T11:38:07.212Z,9.00
2018-08-03T11:40:37.370Z,8.40
2018-08-03T11:43:07.664Z,9.67
2018-08-03T11:45:38.176Z,7.60
2018-08-03T11:48:08.486Z,8.83
2018-08-03T11:50:39.037Z,8.30
2018-08-03T11:53:09.139Z,7.63
2018-08-03T11:55:39.780Z,10.73
2018-08-03T11:58:10.070Z,7.60
2018-08-03T12:00:40.249Z,7.73
2018-08-03T12:03:10.178Z,7.93
2018-08-03T12:05:40.381Z,7.43
2018-08-03T12:08:11.353Z,8.93
2018-08-03T12:10:41.514Z,15.63
2018-08-03T12:13:11.560Z,8.00
2018-08-03T12:15:41.890Z,11.40
2018-08-03T12:18:14.516Z,7.57
2018-08-03T12:20:46.066Z,7.57
2018-08-03T12:23:16.360Z,6.67
2018-08-03T12:25:46.573Z,6.60
2018-08-03T12:28:16.752Z,6.70
2018-08-03T12:30:46.882Z,6.13
2018-08-03T12:33:17.148Z,6.77
2018-08-03T12:35:47.345Z,5.77
2018-08-03T12:38:17.432Z,5.30
2018-08-03T12:40:47.690Z,4.90
2018-08-03T12:43:18.440Z,4.90
2018-08-03T12:45:48.786Z,6.10
2018-08-03T12:48:19.946Z,5.70
2018-08-03T12:50:50.414Z,8.00
2018-08-03T12:53:20.616Z,5.80
2018-08-03T12:55:50.819Z,4.93
2018-08-03T12:58:21.166Z,6.13
2018-08-03T13:00:51.153Z,5.20
2018-08-03T13:03:21.490Z,5.27
2018-08-03T13:05:51.769Z,6.00
2018-08-03T13:08:22.228Z,4.50
2018-08-03T13:10:52.329Z,8.43
2018-08-03T13:13:22.482Z,5.03
2018-08-03T13:15:52.923Z,5.87
2018-08-03T13:18:23.176Z,5.33
2018-08-03T13:20:53.932Z,10.23
2018-08-03T13:23:23.792Z,5.70
2018-08-03T13:25:53.982Z,7.10
2018-08-03T13:28:24.532Z,9.43
2018-08-03T13:30:54.764Z,5.30
2018-08-03T13:33:25.329Z,5.90
2018-08-03T13:35:55.564Z,6.17
2018-08-03T13:38:25.745Z,5.17
2018-08-03T13:40:55.979Z,9.30
2018-08-03T13:43:26.184Z,6.67
2018-08-03T13:45:56.528Z,4.80
2018-08-03T13:48:26.983Z,5.33
2018-08-03T13:50:57.277Z,7.30
2018-08-03T13:53:28.342Z,6.13
2018-08-03T13:55:58.395Z,5.50
2018-08-03T13:58:28.243Z,5.30
2018-08-03T14:01:09.799Z,6.93
2018-08-03T14:03:39.737Z,5.70
2018-08-03T14:06:10.175Z,6.07
2018-08-03T14:08:41.178Z,10.73
2018-08-03T14:11:48.541Z,5.90
2018-08-03T14:14:50.318Z,5.27
2018-08-03T14:18:04.251Z,10.13
2018-08-03T14:20:45.209Z,8.37
2018-08-03T14:23:15.311Z,8.40
2018-08-03T14:25:45.719Z,13.80
2018-08-03T14:28:16.228Z,6.67
2018-08-03T14:30:46.947Z,5.50
2018-08-03T14:33:17.874Z,7.43
2018-08-03T14:35:48.158Z,6.70
2018-08-03T14:38:18.275Z,5.70
2018-08-03T14:40:48.604Z,7.10
2018-08-03T14:43:18.740Z,6.00
2018-08-03T14:45:48.943Z,5.80
2018-08-03T14:48:19.072Z,5.00
2018-08-03T14:50:49.271Z,5.97
2018-08-03T14:53:19.708Z,5.33
2018-08-03T14:55:49.808Z,5.40
2018-08-03T14:58:20.322Z,7.47
2018-08-03T15:00:50.425Z,5.63
2018-08-03T15:03:20.338Z,5.33
2018-08-03T15:05:50.553Z,5.70
2018-08-03T15:08:20.347Z,5.80
2018-08-03T15:10:50.629Z,5.27
2018-08-03T15:13:20.792Z,7.20
2018-08-03T15:15:50.960Z,5.27
2018-08-03T15:18:21.037Z,6.53
2018-08-03T15:20:51.275Z,6.20
2018-08-03T15:23:21.611Z,7.13
2018-08-03T15:25:51.929Z,8.53
2018-08-03T15:28:22.278Z,4.90
2018-08-03T15:30:52.382Z,5.60
2018-08-03T15:33:22.473Z,5.53
2018-08-03T15:35:52.839Z,5.17
2018-08-03T15:38:23.074Z,5.83
2018-08-03T15:40:54.423Z,6.33
2018-08-03T15:43:24.851Z,5.40
2018-08-03T15:45:54.901Z,6.00
2018-08-03T15:48:25.255Z,11.23
2018-08-03T15:50:55.795Z,5.80
2018-08-03T15:53:26.236Z,7.37
2018-08-03T15:55:56.428Z,4.60
2018-08-03T15:58:26.706Z,4.23
2018-08-03T16:00:57.270Z,4.50
2018-08-03T16:03:27.410Z,4.97
2018-08-03T16:05:57.667Z,4.47
2018-08-03T16:08:30.983Z,5.30
2018-08-03T16:11:01.206Z,4.20
2018-08-03T16:13:31.488Z,6.13
2018-08-03T16:16:01.608Z,5.30
2018-08-03T16:18:31.840Z,4.80
2018-08-03T16:21:02.017Z,5.17
2018-08-03T16:23:32.152Z,4.57
2018-08-03T16:26:02.500Z,5.13
2018-08-03T16:28:32.939Z,4.93
2018-08-03T16:31:03.168Z,5.33
2018-08-03T16:33:33.405Z,7.70
2018-08-03T16:36:03.557Z,6.17
2018-08-03T16:38:33.626Z,4.63
2018-08-03T16:41:03.794Z,5.13
2018-08-03T16:43:34.006Z,5.83
2018-08-03T16:46:04.271Z,6.00
2018-08-03T16:48:34.602Z,4.83
2018-08-03T16:51:04.794Z,5.97
2018-08-03T16:53:35.425Z,5.57
2018-08-03T16:56:05.530Z,5.57
2018-08-03T16:58:35.710Z,5.73
2018-08-03T17:01:05.824Z,5.23
2018-08-03T17:03:35.836Z,5.57
2018-08-03T17:06:06.065Z,5.20
2018-08-03T17:08:36.225Z,5.10
2018-08-03T17:11:07.585Z,5.87
2018-08-03T17:13:37.789Z,7.33
2018-08-03T17:16:08.928Z,8.77
2018-08-03T17:18:39.755Z,9.33
2018-08-03T17:21:10.313Z,14.80
2018-08-03T17:23:40.488Z,8.40
2018-08-03T17:26:10.683Z,10.40
2018-08-03T17:28:40.990Z,12.27
2018-08-03T17:31:11.134Z,8.03
2018-08-03T17:33:41.350Z,8.33
2018-08-03T17:36:15.551Z,7.97
2018-08-03T17:38:46.078Z,9.67
2018-08-03T17:41:16.117Z,8.97
2018-08-03T17:43:46.347Z,8.43
2018-08-03T17:46:16.535Z,10.80
2018-08-03T17:48:46.923Z,8.90
2018-08-03T17:51:19.155Z,8.57
2018-08-03T17:53:49.428Z,10.57
2018-08-03T17:56:19.745Z,8.63
2018-08-03T17:58:50.938Z,9.63
2018-08-03T18:01:21.688Z,8.70
2018-08-03T18:03:51.891Z,7.50
2018-08-03T18:06:22.607Z,9.53
2018-08-03T18:08:52.794Z,11.43
2018-08-03T18:11:23.213Z,9.60
2018-08-03T18:13:53.398Z,8.40
2018-08-03T18:16:23.508Z,10.73
2018-08-03T18:18:53.790Z,10.40
2018-08-03T18:21:24.648Z,8.90
2018-08-03T18:23:54.907Z,8.83
2018-08-03T18:26:25.170Z,9.17
2018-08-03T18:28:55.402Z,8.53
2018-08-03T18:31:26.586Z,8.70
2018-08-03T18:33:56.679Z,9.10
2018-08-03T18:36:26.866Z,12.13
2018-08-03T18:38:57.219Z,10.93
2018-08-03T18:41:27.579Z,11.13
2018-08-03T18:43:58.031Z,9.33
2018-08-03T18:46:28.931Z,8.33
2018-08-03T18:48:59.176Z,9.57
2018-08-03T18:51:29.343Z,10.10
2018-08-03T18:53:59.552Z,11.60
2018-08-03T18:56:29.903Z,8.50
2018-08-03T18:58:59.963Z,8.67
2018-08-03T19:01:30.416Z,9.70
2018-08-03T19:04:01.271Z,9.43
2018-08-03T19:06:31.357Z,11.90
2018-08-03T19:09:01.591Z,8.97
2018-08-03T19:11:31.478Z,9.27
2018-08-03T19:14:01.533Z,8.93
2018-08-03T19:16:31.999Z,8.77
2018-08-03T19:19:02.205Z,10.23
2018-08-03T19:21:33.474Z,8.70
2018-08-03T19:24:04.062Z,8.50
2018-08-03T19:26:34.077Z,19.20
2018-08-03T19:29:04.585Z,11.90
2018-08-03T19:31:35.054Z,9.93
2018-08-03T19:34:05.451Z,10.47
2018-08-03T19:36:36.010Z,13.40
2018-08-03T19:39:09.019Z,12.00
2018-08-03T19:41:39.397Z,12.97
2018-08-03T19:44:09.651Z,9.13
2018-08-03T19:46:39.863Z,9.50
2018-08-03T19:49:09.871Z,19.57
2018-08-03T19:51:39.963Z,10.73
2018-08-03T19:54:10.491Z,14.70
2018-08-03T19:56:46.979Z,9.00
2018-08-03T19:59:17.434Z,10.83
2018-08-03T20:01:47.929Z,9.50
2018-08-03T20:04:18.213Z,9.50
2018-08-03T20:06:48.795Z,11.43
2018-08-03T20:09:19.561Z,10.67
2018-08-03T20:11:49.755Z,9.60
2018-08-03T20:14:20.296Z,9.70
2018-08-03T20:16:50.560Z,10.17
2018-08-03T20:19:21.226Z,11.53
2018-08-03T20:21:51.347Z,12.20
2018-08-03T20:24:21.672Z,12.50
2018-08-03T20:26:51.731Z,11.03
2018-08-03T20:29:21.966Z,10.40
2018-08-03T20:31:52.248Z,11.57
2018-08-03T20:34:22.788Z,14.57
2018-08-03T20:36:53.675Z,10.50
2018-08-03T20:39:30.319Z,10.40
2018-08-03T20:42:00.291Z,11.77
2018-08-03T20:44:30.684Z,10.00
2018-08-03T20:47:01.248Z,9.70
2018-08-03T20:49:31.309Z,14.80
2018-08-03T20:52:01.712Z,10.80
2018-08-03T20:54:32.482Z,14.03
2018-08-03T20:57:02.931Z,16.63
2018-08-03T20:59:34.020Z,12.10
2018-08-03T21:02:04.263Z,13.80
2018-08-03T21:04:35.341Z,15.10
2018-08-03T21:07:05.907Z,11.37
2018-08-03T21:09:36.215Z,14.67
2018-08-03T21:12:06.556Z,15.50
2018-08-03T21:14:36.903Z,12.93
2018-08-03T21:17:07.700Z,12.77
2018-08-03T21:19:37.910Z,14.50
2018-08-03T21:22:08.767Z,17.17
2018-08-03T21:24:39.047Z,12.90
2018-08-03T21:27:09.273Z,20.03
2018-08-03T21:29:39.535Z,12.07
2018-08-03T21:32:09.839Z,12.97
2018-08-03T21:34:40.288Z,16.03
2018-08-03T21:37:10.675Z,14.50
2018-08-03T21:39:41.779Z,13.30
2018-08-03T21:42:12.308Z,14.10
2018-08-03T21:44:42.553Z,13.90
2018-08-03T21:47:12.721Z,14.93
2018-08-03T21:49:43.059Z,16.57
2018-08-03T21:52:13.391Z,13.47
2018-08-03T21:54:43.548Z,11.97
2018-08-03T21:57:13.689Z,12.70
2018-08-03T21:59:43.909Z,13.20
2018-08-03T22:02:14.025Z,18.60
2018-08-03T22:04:44.412Z,11.67
2018-08-03T22:07:14.894Z,12.23
2018-08-03T22:09:45.646Z,17.33
2018-08-03T22:12:16.032Z,10.60
2018-08-03T22:14:46.146Z,10.60
2018-08-03T22:17:16.634Z,11.30
2018-08-03T22:19:47.058Z,9.73
2018-08-03T22:22:17.595Z,11.53
2018-08-03T22:24:47.855Z,10.47
2018-08-03T22:27:18.865Z,12.83
2018-08-03T22:29:49.068Z,10.50
2018-08-03T22:32:19.113Z,11.73
2018-08-03T22:34:49.892Z,15.30
2018-08-03T22:37:20.162Z,11.77
2018-08-03T22:39:50.396Z,11.30
2018-08-03T22:42:21.031Z,11.23
2018-08-03T22:44:54.532Z,11.00
2018-08-03T22:47:25.240Z,13.03
2018-08-03T22:49:55.395Z,12.40
2018-08-03T22:52:25.642Z,10.33
2018-08-03T22:54:56.129Z,10.63
2018-08-03T22:57:27.049Z,10.83
2018-08-03T22:59:59.210Z,10.60
2018-08-03T23:02:31.941Z,11.47
2018-08-03T23:05:02.154Z,11.13
2018-08-03T23:07:32.414Z,11.53
2018-08-03T23:10:02.591Z,10.77
2018-08-03T23:12:32.757Z,11.60
2018-08-03T23:15:02.959Z,10.57
2018-08-03T23:17:33.474Z,12.60
2018-08-03T23:20:03.942Z,13.10
2018-08-03T23:22:34.758Z,12.00
2018-08-03T23:25:04.611Z,11.00
2018-08-03T23:27:34.779Z,11.33
2018-08-03T23:30:05.599Z,17.13
2018-08-03T23:32:35.891Z,17.67
2018-08-03T23:35:06.051Z,12.63
2018-08-03T23:37:36.352Z,18.40
2018-08-03T23:40:06.712Z,11.27
2018-08-03T23:42:37.167Z,13.73
2018-08-03T23:45:07.608Z,14.33
2018-08-03T23:47:37.784Z,15.40
2018-08-03T23:50:16.927Z,12.50
2018-08-03T23:52:48.582Z,15.10
2018-08-03T23:55:19.197Z,13.67
2018-08-03T23:57:49.732Z,15.77
